sensor_id;sensor_type;location;lat;lon;timestamp;P1;durP1;ratioP1;P2;durP2;ratioP2
59314;SDS011;46521;50.160;20.802;2023-08-06T00:05:16;10.60;;;6.87;;
59314;SDS011;46521;50.160;20.802;2023-08-06T00:15:24;10.10;;;6.20;;
59314;SDS011;46521;50.160;20.802;2023-08-06T00:25:25;9.58;;;5.75;;
59314;SDS011;46521;50.160;20.802;2023-08-06T00:35:26;10.93;;;5.83;;
59314;SDS011;46521;50.160;20.802;2023-08-06T00:45:28;9.35;;;5.45;;
59314;SDS011;46521;50.160;20.802;2023-08-06T00:55:30;9.45;;;4.75;;
59314;SDS011;46521;50.160;20.802;2023-08-06T01:05:32;7.75;;;3.50;;
59314;SDS011;46521;50.160;20.802;2023-08-06T01:15:46;7.40;;;3.77;;
59314;SDS011;46521;50.160;20.802;2023-08-06T01:36:04;10.28;;;5.23;;
59314;SDS011;46521;50.160;20.802;2023-08-06T01:46:07;13.28;;;7.63;;
59314;SDS011;46521;50.160;20.802;2023-08-06T01:56:08;16.40;;;8.40;;
59314;SDS011;46521;50.160;20.802;2023-08-06T02:06:10;12.08;;;7.98;;
59314;SDS011;46521;50.160;20.802;2023-08-06T02:16:11;14.85;;;8.55;;
59314;SDS011;46521;50.160;20.802;2023-08-06T02:26:13;12.27;;;8.53;;
59314;SDS011;46521;50.160;20.802;2023-08-06T02:36:14;13.58;;;9.13;;
59314;SDS011;46521;50.160;20.802;2023-08-06T02:46:16;11.73;;;8.97;;
59314;SDS011;46521;50.160;20.802;2023-08-06T02:56:17;13.63;;;8.50;;
59314;SDS011;46521;50.160;20.802;2023-08-06T03:06:19;13.17;;;8.23;;
59314;SDS011;46521;50.160;20.802;2023-08-06T03:16:20;12.45;;;8.45;;
59314;SDS011;46521;50.160;20.802;2023-08-06T03:26:21;12.90;;;9.33;;
59314;SDS011;46521;50.160;20.802;2023-08-06T03:36:23;14.18;;;9.80;;
59314;SDS011;46521;50.160;20.802;2023-08-06T03:46:25;15.38;;;9.83;;
59314;SDS011;46521;50.160;20.802;2023-08-06T03:56:26;16.00;;;12.05;;
59314;SDS011;46521;50.160;20.802;2023-08-06T04:06:28;24.45;;;18.50;;
59314;SDS011;46521;50.160;20.802;2023-08-06T04:16:29;29.00;;;21.50;;
59314;SDS011;46521;50.160;20.802;2023-08-06T04:26:31;32.80;;;23.10;;
59314;SDS011;46521;50.160;20.802;2023-08-06T04:36:32;31.75;;;23.30;;
59314;SDS011;46521;50.160;20.802;2023-08-06T04:46:34;28.20;;;21.00;;
59314;SDS011;46521;50.160;20.802;2023-08-06T04:56:35;30.47;;;21.20;;
59314;SDS011;46521;50.160;20.802;2023-08-06T05:06:37;27.50;;;20.70;;
59314;SDS011;46521;50.160;20.802;2023-08-06T05:16:42;30.78;;;21.13;;
59314;SDS011;46521;50.160;20.802;2023-08-06T05:26:43;32.98;;;21.80;;
59314;SDS011;46521;50.160;20.802;2023-08-06T05:36:47;27.93;;;20.37;;
59314;SDS011;46521;50.160;20.802;2023-08-06T05:46:59;27.43;;;19.25;;
59314;SDS011;46521;50.160;20.802;2023-08-06T05:57:01;29.05;;;20.20;;
59314;SDS011;46521;50.160;20.802;2023-08-06T06:07:02;29.83;;;19.53;;
59314;SDS011;46521;50.160;20.802;2023-08-06T06:17:04;26.43;;;17.60;;
59314;SDS011;46521;50.160;20.802;2023-08-06T06:27:06;25.73;;;17.23;;
59314;SDS011;46521;50.160;20.802;2023-08-06T06:37:07;23.45;;;16.70;;
59314;SDS011;46521;50.160;20.802;2023-08-06T06:47:09;24.13;;;16.60;;
59314;SDS011;46521;50.160;20.802;2023-08-06T06:57:10;21.03;;;15.33;;
59314;SDS011;46521;50.160;20.802;2023-08-06T07:07:12;18.20;;;13.40;;
59314;SDS011;46521;50.160;20.802;2023-08-06T07:17:13;17.47;;;13.13;;
59314;SDS011;46521;50.160;20.802;2023-08-06T07:27:14;16.00;;;12.30;;
59314;SDS011;46521;50.160;20.802;2023-08-06T07:37:16;14.43;;;11.90;;
59314;SDS011;46521;50.160;20.802;2023-08-06T07:47:18;15.40;;;12.37;;
59314;SDS011;46521;50.160;20.802;2023-08-06T07:57:19;15.05;;;12.10;;
59314;SDS011;46521;50.160;20.802;2023-08-06T08:07:21;13.70;;;11.97;;
59314;SDS011;46521;50.160;20.802;2023-08-06T08:17:22;13.73;;;11.63;;
59314;SDS011;46521;50.160;20.802;2023-08-06T08:27:24;12.27;;;7.73;;
59314;SDS011;46521;50.160;20.802;2023-08-06T08:37:25;8.30;;;5.88;;
59314;SDS011;46521;50.160;20.802;2023-08-06T08:47:27;9.60;;;4.93;;
59314;SDS011;46521;50.160;20.802;2023-08-06T08:57:28;6.23;;;3.13;;
59314;SDS011;46521;50.160;20.802;2023-08-06T09:07:38;2.75;;;1.10;;
59314;SDS011;46521;50.160;20.802;2023-08-06T09:17:44;1.73;;;1.13;;
59314;SDS011;46521;50.160;20.802;2023-08-06T09:27:46;2.57;;;0.90;;
59314;SDS011;46521;50.160;20.802;2023-08-06T09:37:49;1.03;;;0.67;;
59314;SDS011;46521;50.160;20.802;2023-08-06T09:47:50;2.15;;;1.00;;
59314;SDS011;46521;50.160;20.802;2023-08-06T09:57:57;2.17;;;0.97;;
59314;SDS011;46521;50.160;20.802;2023-08-06T10:08:00;1.90;;;0.90;;
59314;SDS011;46521;50.160;20.802;2023-08-06T10:18:03;2.60;;;0.93;;
59314;SDS011;46521;50.160;20.802;2023-08-06T10:28:07;1.50;;;0.80;;
59314;SDS011;46521;50.160;20.802;2023-08-06T10:38:20;2.35;;;1.00;;
59314;SDS011;46521;50.160;20.802;2023-08-06T10:48:29;2.40;;;1.00;;
59314;SDS011;46521;50.160;20.802;2023-08-06T10:58:35;2.60;;;1.10;;
59314;SDS011;46521;50.160;20.802;2023-08-06T11:08:37;2.97;;;1.20;;
59314;SDS011;46521;50.160;20.802;2023-08-06T11:18:39;1.97;;;0.87;;
59314;SDS011;46521;50.160;20.802;2023-08-06T11:38:44;1.30;;;0.80;;
59314;SDS011;46521;50.160;20.802;2023-08-06T11:48:52;1.60;;;0.60;;
59314;SDS011;46521;50.160;20.802;2023-08-06T11:58:57;1.35;;;0.80;;
59314;SDS011;46521;50.160;20.802;2023-08-06T12:08:59;1.55;;;0.70;;
59314;SDS011;46521;50.160;20.802;2023-08-06T12:19:00;1.50;;;0.90;;
59314;SDS011;46521;50.160;20.802;2023-08-06T12:29:02;1.23;;;0.80;;
59314;SDS011;46521;50.160;20.802;2023-08-06T12:39:03;1.57;;;0.80;;
59314;SDS011;46521;50.160;20.802;2023-08-06T12:49:05;1.85;;;0.80;;
59314;SDS011;46521;50.160;20.802;2023-08-06T12:59:06;0.60;;;0.50;;
59314;SDS011;46521;50.160;20.802;2023-08-06T13:09:11;1.73;;;0.60;;
59314;SDS011;46521;50.160;20.802;2023-08-06T13:19:13;4.13;;;1.08;;
59314;SDS011;46521;50.160;20.802;2023-08-06T13:29:15;2.20;;;0.85;;
59314;SDS011;46521;50.160;20.802;2023-08-06T13:39:16;2.80;;;1.10;;
59314;SDS011;46521;50.160;20.802;2023-08-06T13:49:18;1.95;;;0.78;;
59314;SDS011;46521;50.160;20.802;2023-08-06T13:59:20;1.78;;;0.60;;
59314;SDS011;46521;50.160;20.802;2023-08-06T14:09:21;1.50;;;0.50;;
59314;SDS011;46521;50.160;20.802;2023-08-06T14:19:23;1.35;;;0.50;;
59314;SDS011;46521;50.160;20.802;2023-08-06T14:29:24;1.05;;;0.53;;
59314;SDS011;46521;50.160;20.802;2023-08-06T14:39:26;1.00;;;0.50;;
59314;SDS011;46521;50.160;20.802;2023-08-06T14:49:27;0.58;;;0.40;;
59314;SDS011;46521;50.160;20.802;2023-08-06T14:59:29;1.55;;;0.60;;
59314;SDS011;46521;50.160;20.802;2023-08-06T15:09:30;1.60;;;0.40;;
59314;SDS011;46521;50.160;20.802;2023-08-06T15:19:32;0.40;;;0.33;;
59314;SDS011;46521;50.160;20.802;2023-08-06T15:29:33;0.60;;;0.33;;
59314;SDS011;46521;50.160;20.802;2023-08-06T15:39:35;1.25;;;0.60;;
59314;SDS011;46521;50.160;20.802;2023-08-06T15:49:37;1.70;;;0.70;;
59314;SDS011;46521;50.160;20.802;2023-08-06T15:59:38;1.20;;;0.80;;
59314;SDS011;46521;50.160;20.802;2023-08-06T16:09:40;1.27;;;0.80;;
59314;SDS011;46521;50.160;20.802;2023-08-06T16:19:42;1.90;;;0.93;;
59314;SDS011;46521;50.160;20.802;2023-08-06T16:29:43;2.08;;;0.90;;
59314;SDS011;46521;50.160;20.802;2023-08-06T16:39:46;2.03;;;1.00;;
59314;SDS011;46521;50.160;20.802;2023-08-06T16:49:50;1.73;;;0.90;;
59314;SDS011;46521;50.160;20.802;2023-08-06T16:59:51;2.77;;;1.10;;
59314;SDS011;46521;50.160;20.802;2023-08-06T17:09:53;5.10;;;1.40;;
59314;SDS011;46521;50.160;20.802;2023-08-06T17:19:54;0.83;;;0.70;;
59314;SDS011;46521;50.160;20.802;2023-08-06T17:29:56;1.95;;;0.93;;
59314;SDS011;46521;50.160;20.802;2023-08-06T17:39:58;2.13;;;1.00;;
59314;SDS011;46521;50.160;20.802;2023-08-06T17:49:59;4.68;;;1.10;;
59314;SDS011;46521;50.160;20.802;2023-08-06T18:00:01;1.53;;;1.03;;
59314;SDS011;46521;50.160;20.802;2023-08-06T18:10:03;3.20;;;1.00;;
59314;SDS011;46521;50.160;20.802;2023-08-06T18:20:05;2.30;;;1.10;;
59314;SDS011;46521;50.160;20.802;2023-08-06T18:30:08;1.63;;;0.97;;
59314;SDS011;46521;50.160;20.802;2023-08-06T18:40:09;3.50;;;1.10;;
59314;SDS011;46521;50.160;20.802;2023-08-06T18:50:11;3.50;;;1.37;;
59314;SDS011;46521;50.160;20.802;2023-08-06T19:00:13;2.63;;;1.20;;
59314;SDS011;46521;50.160;20.802;2023-08-06T19:10:15;2.95;;;1.30;;
59314;SDS011;46521;50.160;20.802;2023-08-06T19:20:17;4.10;;;1.28;;
59314;SDS011;46521;50.160;20.802;2023-08-06T19:30:18;3.95;;;1.30;;
59314;SDS011;46521;50.160;20.802;2023-08-06T19:40:20;2.58;;;1.20;;
59314;SDS011;46521;50.160;20.802;2023-08-06T19:50:21;3.73;;;1.70;;
59314;SDS011;46521;50.160;20.802;2023-08-06T20:00:23;3.13;;;1.45;;
59314;SDS011;46521;50.160;20.802;2023-08-06T20:10:25;2.90;;;1.30;;
59314;SDS011;46521;50.160;20.802;2023-08-06T20:20:26;3.03;;;1.33;;
59314;SDS011;46521;50.160;20.802;2023-08-06T20:30:28;4.17;;;1.40;;
59314;SDS011;46521;50.160;20.802;2023-08-06T20:40:29;6.45;;;1.60;;
59314;SDS011;46521;50.160;20.802;2023-08-06T20:50:31;2.70;;;1.10;;
59314;SDS011;46521;50.160;20.802;2023-08-06T21:00:32;2.40;;;1.10;;
59314;SDS011;46521;50.160;20.802;2023-08-06T21:10:34;3.27;;;1.30;;
59314;SDS011;46521;50.160;20.802;2023-08-06T21:20:35;2.83;;;1.00;;
59314;SDS011;46521;50.160;20.802;2023-08-06T21:30:36;6.57;;;1.33;;
59314;SDS011;46521;50.160;20.802;2023-08-06T21:40:38;2.93;;;1.10;;
59314;SDS011;46521;50.160;20.802;2023-08-06T21:50:39;3.58;;;1.40;;
59314;SDS011;46521;50.160;20.802;2023-08-06T22:00:41;4.93;;;1.83;;
59314;SDS011;46521;50.160;20.802;2023-08-06T22:10:42;3.70;;;1.43;;
59314;SDS011;46521;50.160;20.802;2023-08-06T22:20:45;5.13;;;1.80;;
59314;SDS011;46521;50.160;20.802;2023-08-06T22:30:47;6.15;;;1.85;;
59314;SDS011;46521;50.160;20.802;2023-08-06T22:40:49;4.73;;;1.70;;
59314;SDS011;46521;50.160;20.802;2023-08-06T22:50:51;5.43;;;1.67;;
59314;SDS011;46521;50.160;20.802;2023-08-06T23:00:52;3.67;;;1.20;;
59314;SDS011;46521;50.160;20.802;2023-08-06T23:10:55;4.03;;;1.50;;
59314;SDS011;46521;50.160;20.802;2023-08-06T23:20:57;4.97;;;1.90;;
59314;SDS011;46521;50.160;20.802;2023-08-06T23:30:58;4.55;;;1.40;;
59314;SDS011;46521;50.160;20.802;2023-08-06T23:41:00;3.97;;;1.70;;
59314;SDS011;46521;50.160;20.802;2023-08-06T23:51:02;6.20;;;1.73;;
